createdAt,value
2023-04-25T00:01:59.150Z,7.60
2023-04-25T00:04:31.017Z,7.60
2023-04-25T00:06:58.498Z,7.70
2023-04-25T00:09:25.376Z,7.70
2023-04-25T00:11:52.234Z,7.60
2023-04-25T00:14:19.192Z,7.60
2023-04-25T00:16:46.130Z,7.60
2023-04-25T00:19:14.497Z,7.50
2023-04-25T00:21:41.745Z,7.50
2023-04-25T00:24:09.032Z,7.50
2023-04-25T00:26:36.953Z,7.40
2023-04-25T00:29:04.084Z,7.50
2023-04-25T00:31:31.657Z,7.40
2023-04-25T00:33:58.685Z,7.40
2023-04-25T00:36:25.859Z,7.50
2023-04-25T00:38:54.904Z,7.50
2023-04-25T00:41:21.858Z,7.50
2023-04-25T00:43:50.244Z,7.40
2023-04-25T00:46:17.303Z,7.40
2023-04-25T00:48:44.177Z,7.40
2023-04-25T00:51:17.717Z,7.40
2023-04-25T00:53:45.867Z,7.40
2023-04-25T00:56:13.041Z,7.30
2023-04-25T00:58:41.330Z,7.30
2023-04-25T01:01:10.496Z,7.30
2023-04-25T01:03:44.078Z,7.30
2023-04-25T01:06:12.426Z,7.20
2023-04-25T01:08:42.821Z,7.20
2023-04-25T01:11:10.049Z,7.10
2023-04-25T01:13:37.465Z,7.20
2023-04-25T01:16:04.748Z,7.10
2023-04-25T01:18:31.862Z,7.20
2023-04-25T01:21:11.122Z,7.10
2023-04-25T01:23:43.014Z,7.10
2023-04-25T01:26:12.188Z,7.10
2023-04-25T01:28:42.360Z,7.10
2023-04-25T01:31:10.038Z,7.10
2023-04-25T01:33:37.014Z,7.10
2023-04-25T01:36:04.567Z,7.10
2023-04-25T01:38:31.461Z,7.10
2023-04-25T01:40:58.742Z,7.00
2023-04-25T01:43:27.388Z,7.00
2023-04-25T01:45:54.613Z,7.00
2023-04-25T01:48:21.815Z,7.10
2023-04-25T01:50:49.442Z,7.00
2023-04-25T01:53:16.680Z,7.00
2023-04-25T01:55:43.864Z,6.90
2023-04-25T01:58:13.286Z,6.80
2023-04-25T02:00:41.771Z,6.80
2023-04-25T02:03:09.583Z,6.80
2023-04-25T02:05:41.323Z,6.60
2023-04-25T02:08:10.041Z,6.50
2023-04-25T02:10:37.670Z,6.50
2023-04-25T02:13:06.234Z,6.50
2023-04-25T02:15:33.317Z,6.50
2023-04-25T02:18:01.266Z,6.50
2023-04-25T02:20:29.655Z,6.50
2023-04-25T02:22:56.583Z,6.50
2023-04-25T02:25:23.639Z,6.40
2023-04-25T02:27:52.305Z,6.40
2023-04-25T02:30:19.218Z,6.30
2023-04-25T02:32:46.408Z,6.20
2023-04-25T02:35:13.300Z,6.20
2023-04-25T02:37:40.986Z,6.20
2023-04-25T02:40:09.066Z,6.10
2023-04-25T02:42:36.451Z,6.10
2023-04-25T02:45:04.111Z,6.20
2023-04-25T02:47:31.216Z,6.30
2023-04-25T02:49:58.273Z,6.30
2023-04-25T02:52:25.773Z,6.30
2023-04-25T02:54:52.649Z,6.30
2023-04-25T02:57:19.692Z,6.30
2023-04-25T02:59:46.650Z,6.30
2023-04-25T03:02:13.590Z,6.30
2023-04-25T03:04:40.830Z,6.20
2023-04-25T03:07:08.235Z,6.20
2023-04-25T03:09:35.736Z,6.30
2023-04-25T03:12:02.663Z,6.30
2023-04-25T03:14:29.507Z,6.30
2023-04-25T03:16:56.485Z,6.20
2023-04-25T03:19:23.546Z,6.20
2023-04-25T03:21:50.532Z,6.10
2023-04-25T03:24:17.366Z,6.10
2023-04-25T03:26:44.292Z,6.10
2023-04-25T03:29:11.198Z,6.10
2023-04-25T03:31:38.205Z,6.10
2023-04-25T03:34:05.046Z,6.10
2023-04-25T03:36:31.915Z,6.20
2023-04-25T03:38:58.774Z,6.30
2023-04-25T03:41:26.061Z,6.20
2023-04-25T03:43:53.102Z,6.20
2023-04-25T03:46:20.184Z,6.10
2023-04-25T03:48:47.014Z,6.10
2023-04-25T03:51:13.950Z,6.20
2023-04-25T03:53:40.903Z,6.10
2023-04-25T03:56:07.970Z,6.20
2023-04-25T03:58:34.872Z,6.20
2023-04-25T04:01:04.193Z,6.20
2023-04-25T04:03:31.254Z,6.20
2023-04-25T04:05:58.296Z,6.20
2023-04-25T04:08:25.284Z,6.20
2023-04-25T04:10:52.235Z,6.20
2023-04-25T04:13:19.211Z,6.20
2023-04-25T04:15:46.117Z,6.20
2023-04-25T04:18:13.054Z,6.20
2023-04-25T04:20:40.167Z,6.20
2023-04-25T04:23:07.146Z,6.20
2023-04-25T04:25:34.026Z,6.10
2023-04-25T04:28:01.922Z,6.10
2023-04-25T04:30:32.089Z,6.10
2023-04-25T04:32:59.081Z,6.10
2023-04-25T04:35:25.997Z,6.20
2023-04-25T04:37:52.792Z,6.20
2023-04-25T04:40:19.860Z,6.20
2023-04-25T04:42:47.163Z,6.10
2023-04-25T04:45:14.713Z,6.20
2023-04-25T04:47:45.813Z,6.20
2023-04-25T04:50:12.728Z,6.30
2023-04-25T04:52:39.818Z,6.30
2023-04-25T04:55:07.226Z,6.40
2023-04-25T04:57:34.285Z,6.40
2023-04-25T05:00:02.208Z,6.40
2023-04-25T05:02:29.466Z,6.50
2023-04-25T05:04:57.933Z,6.50
2023-04-25T05:07:24.893Z,6.50
2023-04-25T05:09:51.760Z,6.50
2023-04-25T05:12:18.722Z,6.50
2023-04-25T05:14:45.682Z,6.40
2023-04-25T05:17:12.582Z,6.50
2023-04-25T05:19:41.053Z,6.50
2023-04-25T05:22:07.889Z,6.50
2023-04-25T05:24:34.822Z,6.50
2023-04-25T05:27:01.685Z,6.50
2023-04-25T05:29:28.615Z,6.60
2023-04-25T05:31:55.920Z,6.60
2023-04-25T05:34:22.927Z,6.50
2023-04-25T05:36:49.872Z,6.60
2023-04-25T05:39:18.355Z,6.50
2023-04-25T05:41:45.421Z,6.50
2023-04-25T05:44:12.298Z,6.60
2023-04-25T05:46:39.205Z,6.70
2023-04-25T05:49:06.074Z,6.70
2023-04-25T05:51:32.927Z,6.70
2023-04-25T05:53:59.767Z,6.60
2023-04-25T05:56:26.824Z,6.70
2023-04-25T05:58:53.983Z,6.80
2023-04-25T06:01:20.885Z,6.90
2023-04-25T06:03:48.438Z,6.90
2023-04-25T06:06:15.685Z,6.90
2023-04-25T06:08:42.574Z,6.90
2023-04-25T06:11:09.708Z,6.90
2023-04-25T06:13:36.604Z,6.90
2023-04-25T06:16:03.694Z,6.90
2023-04-25T06:18:30.651Z,6.90
2023-04-25T06:20:57.528Z,7.10
2023-04-25T06:23:24.346Z,7.10
2023-04-25T06:25:51.236Z,7.20
2023-04-25T06:28:18.101Z,7.20
2023-04-25T06:30:45.151Z,7.30
2023-04-25T06:33:11.927Z,7.40
2023-04-25T06:35:38.856Z,7.50
2023-04-25T06:38:05.729Z,7.60
2023-04-25T06:40:32.617Z,7.60
2023-04-25T06:42:59.492Z,7.70
2023-04-25T06:45:26.415Z,7.80
2023-04-25T06:47:53.385Z,7.80
2023-04-25T06:50:20.225Z,8.00
2023-04-25T06:52:47.101Z,8.00
2023-04-25T06:55:14.027Z,8.00
2023-04-25T06:57:42.002Z,7.80
2023-04-25T07:00:10.580Z,7.70
2023-04-25T07:02:37.509Z,7.70
2023-04-25T07:05:05.441Z,7.60
2023-04-25T07:07:32.300Z,7.70
2023-04-25T07:09:59.170Z,7.70
2023-04-25T07:12:26.006Z,7.60
2023-04-25T07:14:53.110Z,7.70
2023-04-25T07:17:20.005Z,7.80
2023-04-25T07:19:46.836Z,7.70
2023-04-25T07:22:13.752Z,7.70
2023-04-25T07:24:40.644Z,7.70
2023-04-25T07:27:07.554Z,7.80
2023-04-25T07:29:37.681Z,7.90
2023-04-25T07:32:05.096Z,7.90
2023-04-25T07:34:33.109Z,7.80
2023-04-25T07:37:00.482Z,7.70
2023-04-25T07:39:27.934Z,7.60
2023-04-25T07:41:55.579Z,7.50
2023-04-25T07:44:22.748Z,7.60
2023-04-25T07:46:49.552Z,7.70
2023-04-25T07:49:16.946Z,7.80
2023-04-25T07:51:46.563Z,7.90
2023-04-25T07:54:18.433Z,7.90
2023-04-25T07:56:52.646Z,8.10
2023-04-25T07:59:22.660Z,8.20
2023-04-25T08:01:49.499Z,8.30
2023-04-25T08:04:16.432Z,8.90
2023-04-25T08:06:44.024Z,10.10
2023-04-25T08:09:11.474Z,11.50
2023-04-25T08:11:38.829Z,12.40
2023-04-25T08:14:06.601Z,11.80
2023-04-25T08:16:33.775Z,11.00
2023-04-25T08:19:01.472Z,10.60
2023-04-25T08:21:28.668Z,10.10
2023-04-25T08:23:55.611Z,9.60
2023-04-25T08:26:22.489Z,9.30
2023-04-25T08:28:49.649Z,9.20
2023-04-25T08:31:16.942Z,9.00
2023-04-25T08:33:44.649Z,8.90
2023-04-25T08:36:11.616Z,8.90
2023-04-25T08:38:38.767Z,9.00
2023-04-25T08:41:07.497Z,9.20
2023-04-25T08:43:36.123Z,9.40
2023-04-25T08:46:03.652Z,9.90
2023-04-25T08:48:34.725Z,10.30
2023-04-25T08:51:03.814Z,10.70
2023-04-25T08:53:34.141Z,10.80
2023-04-25T08:56:05.501Z,10.50
2023-04-25T08:58:33.526Z,10.10
2023-04-25T09:01:01.136Z,9.90
2023-04-25T09:03:28.961Z,9.60
2023-04-25T09:05:56.841Z,9.50
2023-04-25T09:08:23.771Z,9.60
2023-04-25T09:10:50.659Z,9.70
2023-04-25T09:13:26.452Z,9.80
2023-04-25T09:15:55.084Z,9.70
2023-04-25T09:18:30.623Z,9.80
2023-04-25T09:21:13.611Z,9.90
2023-04-25T09:23:44.896Z,9.80
2023-04-25T09:26:15.827Z,9.90
2023-04-25T09:28:44.077Z,9.80
2023-04-25T09:31:12.577Z,9.80
2023-04-25T09:33:39.625Z,9.70
2023-04-25T09:36:08.677Z,9.90
2023-04-25T09:38:43.939Z,10.20
2023-04-25T09:41:11.531Z,10.60
2023-04-25T09:43:39.812Z,10.80
2023-04-25T09:46:12.453Z,10.70
2023-04-25T09:48:39.605Z,10.70
2023-04-25T09:51:14.688Z,10.80
2023-04-25T09:53:53.213Z,10.70
2023-04-25T09:56:23.217Z,10.70
2023-04-25T09:58:51.406Z,10.60
2023-04-25T10:01:18.392Z,10.60
2023-04-25T10:03:50.852Z,10.50
2023-04-25T10:06:23.518Z,10.20
2023-04-25T10:08:54.620Z,10.50
2023-04-25T10:11:24.129Z,10.70
2023-04-25T10:13:51.898Z,10.60
2023-04-25T10:16:19.850Z,10.10
2023-04-25T10:18:46.792Z,9.80
2023-04-25T10:21:15.199Z,9.40
2023-04-25T10:23:42.912Z,8.90
2023-04-25T10:26:13.773Z,8.80
2023-04-25T10:28:56.679Z,9.30
2023-04-25T10:31:23.636Z,10.20
2023-04-25T10:33:51.048Z,10.40
2023-04-25T10:36:23.545Z,10.60
2023-04-25T10:38:52.033Z,10.60
2023-04-25T10:41:21.436Z,10.50
2023-04-25T10:43:50.204Z,10.30
2023-04-25T10:46:28.139Z,10.20
2023-04-25T10:49:00.175Z,10.10
2023-04-25T10:51:34.548Z,10.30
2023-04-25T10:54:09.890Z,10.50
2023-04-25T10:56:45.438Z,10.90
2023-04-25T10:59:18.332Z,11.20
2023-04-25T11:01:58.577Z,11.40
2023-04-25T11:04:33.312Z,12.30
2023-04-25T11:07:24.851Z,12.50
2023-04-25T11:09:52.098Z,12.60
2023-04-25T11:12:19.004Z,12.50
2023-04-25T11:14:46.002Z,12.50
2023-04-25T11:17:13.072Z,12.20
2023-04-25T11:19:40.020Z,12.00
2023-04-25T11:22:07.827Z,11.60
2023-04-25T11:24:36.435Z,10.90
2023-04-25T11:27:04.911Z,10.20
2023-04-25T11:29:33.157Z,10.00
2023-04-25T11:32:01.208Z,9.80
2023-04-25T11:34:33.733Z,9.90
2023-04-25T11:37:03.078Z,10.20
2023-04-25T11:39:30.943Z,10.40
2023-04-25T11:41:58.100Z,10.40
2023-04-25T11:44:25.088Z,10.60
2023-04-25T11:46:52.012Z,11.10
2023-04-25T11:49:19.464Z,11.70
2023-04-25T11:51:48.469Z,11.90
2023-04-25T11:54:16.422Z,12.00
2023-04-25T11:56:44.678Z,11.80
2023-04-25T11:59:12.691Z,12.30
2023-04-25T12:01:42.837Z,12.10
2023-04-25T12:04:18.216Z,11.90
2023-04-25T12:06:49.541Z,11.20
2023-04-25T12:09:19.539Z,10.60
2023-04-25T12:11:53.758Z,10.10
2023-04-25T12:14:25.302Z,9.90
2023-04-25T12:16:52.793Z,9.90
2023-04-25T12:19:21.283Z,10.00
2023-04-25T12:24:25.326Z,10.30
2023-04-25T12:27:04.117Z,10.60
2023-04-25T12:29:41.827Z,11.00
2023-04-25T12:32:15.405Z,10.60
2023-04-25T12:34:42.594Z,10.20
2023-04-25T12:37:09.524Z,9.80
2023-04-25T12:39:36.375Z,9.50
2023-04-25T12:42:05.088Z,9.50
2023-04-25T12:44:33.227Z,9.60
2023-04-25T12:47:00.877Z,10.00
2023-04-25T12:49:28.099Z,10.40
2023-04-25T12:51:55.054Z,10.80
2023-04-25T12:54:21.938Z,11.10
2023-04-25T12:56:48.917Z,11.00
2023-04-25T12:59:16.398Z,10.30
2023-04-25T13:01:43.927Z,10.00
2023-04-25T13:04:11.109Z,9.70
2023-04-25T13:06:38.101Z,9.70
2023-04-25T13:09:05.503Z,9.70
2023-04-25T13:11:32.496Z,9.80
2023-04-25T13:13:59.452Z,9.80
2023-04-25T13:16:26.410Z,10.40
2023-04-25T13:18:53.315Z,10.70
2023-04-25T13:21:20.365Z,10.90
2023-04-25T13:23:47.785Z,11.00
2023-04-25T13:26:14.775Z,11.10
2023-04-25T13:28:43.653Z,11.20
2023-04-25T13:31:11.890Z,11.20
2023-04-25T13:33:38.792Z,11.50
2023-04-25T13:36:06.572Z,11.80
2023-04-25T13:38:33.666Z,12.00
2023-04-25T13:41:01.882Z,11.60
2023-04-25T13:43:28.882Z,11.30
2023-04-25T13:45:55.871Z,10.80
2023-04-25T13:48:23.619Z,10.60
2023-04-25T13:50:50.640Z,10.30
2023-04-25T13:53:17.531Z,9.80
2023-04-25T13:55:44.499Z,9.30
2023-04-25T13:58:11.790Z,9.10
2023-04-25T14:00:40.513Z,9.30
2023-04-25T14:03:11.068Z,9.40
2023-04-25T14:05:39.096Z,9.30
2023-04-25T14:08:10.478Z,9.20
2023-04-25T14:10:38.002Z,9.10
2023-04-25T14:13:05.580Z,8.90
2023-04-25T14:15:33.219Z,8.70
2023-04-25T14:18:01.200Z,8.50
2023-04-25T14:20:28.306Z,8.30
2023-04-25T14:22:56.995Z,8.20
2023-04-25T14:25:24.280Z,8.20
2023-04-25T14:27:51.323Z,8.10
2023-04-25T14:30:20.101Z,8.00
2023-04-25T14:32:47.424Z,7.80
2023-04-25T14:35:14.518Z,7.60
2023-04-25T14:37:41.553Z,7.40
2023-04-25T14:40:13.922Z,7.20
2023-04-25T14:42:41.247Z,7.10
2023-04-25T14:45:09.704Z,7.30
2023-04-25T14:47:38.376Z,7.50
2023-04-25T14:50:06.602Z,7.70
2023-04-25T14:52:33.517Z,7.90
2023-04-25T14:55:01.396Z,8.20
2023-04-25T14:57:28.376Z,8.50
2023-04-25T14:59:55.412Z,8.80
2023-04-25T15:02:22.593Z,9.00
2023-04-25T15:04:49.764Z,9.20
2023-04-25T15:07:18.492Z,9.30
2023-04-25T15:09:45.900Z,9.30
2023-04-25T15:12:13.339Z,9.50
2023-04-25T15:14:40.165Z,9.40
2023-04-25T15:17:07.528Z,9.30
2023-04-25T15:19:34.360Z,9.20
2023-04-25T15:22:04.495Z,9.10
2023-04-25T15:24:31.635Z,9.10
2023-04-25T15:26:59.329Z,8.90
2023-04-25T15:29:27.224Z,8.90
2023-04-25T15:31:54.494Z,8.90
2023-04-25T15:34:21.450Z,8.90
2023-04-25T15:36:48.627Z,8.90
2023-04-25T15:39:15.675Z,8.90
2023-04-25T15:41:42.591Z,8.90
2023-04-25T15:44:10.932Z,8.80
2023-04-25T15:46:38.485Z,8.90
2023-04-25T15:49:05.455Z,9.00
2023-04-25T15:51:33.683Z,9.00
2023-04-25T15:54:04.761Z,9.20
2023-04-25T15:56:31.721Z,9.50
2023-04-25T15:58:58.591Z,9.70
2023-04-25T16:01:26.490Z,9.70
2023-04-25T16:03:53.867Z,9.40
2023-04-25T16:06:21.050Z,9.40
2023-04-25T16:08:48.215Z,9.50
2023-04-25T16:11:15.253Z,9.50
2023-04-25T16:13:42.164Z,9.40
2023-04-25T16:16:09.175Z,9.00
2023-04-25T16:18:36.327Z,8.90
2023-04-25T16:21:04.039Z,8.60
2023-04-25T16:23:31.594Z,8.50
2023-04-25T16:25:58.442Z,8.60
2023-04-25T16:28:25.494Z,8.50
2023-04-25T16:30:52.502Z,8.50
2023-04-25T16:33:19.468Z,8.50
2023-04-25T16:35:46.365Z,8.40
2023-04-25T16:38:13.494Z,8.20
2023-04-25T16:40:40.411Z,8.10
2023-04-25T16:43:07.237Z,8.00
2023-04-25T16:45:34.064Z,7.80
2023-04-25T16:48:00.952Z,7.70
2023-04-25T16:50:27.920Z,7.70
2023-04-25T16:52:54.739Z,7.60
2023-04-25T16:55:24.722Z,7.60
2023-04-25T16:57:51.616Z,7.70
2023-04-25T17:00:19.437Z,7.70
2023-04-25T17:02:46.370Z,7.90
2023-04-25T17:05:13.588Z,7.90
2023-04-25T17:07:40.438Z,8.00
2023-04-25T17:10:07.779Z,8.10
2023-04-25T17:12:34.657Z,8.10
2023-04-25T17:15:01.694Z,8.00
2023-04-25T17:17:28.558Z,7.80
2023-04-25T17:19:55.510Z,7.80
2023-04-25T17:22:22.700Z,7.70
2023-04-25T17:24:49.899Z,7.70
2023-04-25T17:27:16.778Z,7.70
2023-04-25T17:29:43.609Z,7.60
2023-04-25T17:32:10.805Z,7.60
2023-04-25T17:34:39.980Z,7.60
2023-04-25T17:37:08.076Z,7.60
2023-04-25T17:39:34.987Z,7.70
2023-04-25T17:42:02.397Z,7.70
2023-04-25T17:44:29.955Z,7.50
2023-04-25T17:46:56.918Z,7.40
2023-04-25T17:49:23.884Z,7.20
2023-04-25T17:51:51.043Z,6.80
2023-04-25T17:54:18.430Z,6.50
2023-04-25T17:56:45.247Z,6.40
2023-04-25T17:59:12.103Z,6.40
2023-04-25T18:01:39.610Z,6.30
2023-04-25T18:04:08.934Z,6.30
2023-04-25T18:06:35.914Z,6.30
2023-04-25T18:09:03.227Z,6.30
2023-04-25T18:11:30.819Z,6.10
2023-04-25T18:13:57.692Z,6.00
2023-04-25T18:16:24.562Z,6.00
2023-04-25T18:18:53.700Z,5.90
2023-04-25T18:21:21.222Z,5.80
2023-04-25T18:23:48.273Z,5.80
2023-04-25T18:26:16.065Z,5.60
2023-04-25T18:28:43.076Z,5.50
2023-04-25T18:31:10.063Z,5.40
2023-04-25T18:33:37.051Z,5.50
2023-04-25T18:36:04.218Z,5.50
2023-04-25T18:38:35.910Z,5.40
2023-04-25T18:41:24.040Z,5.60
2023-04-25T18:43:51.661Z,5.70
2023-04-25T18:46:22.414Z,5.60
2023-04-25T18:48:50.338Z,5.60
2023-04-25T18:51:17.630Z,5.50
2023-04-25T18:53:44.560Z,5.50
2023-04-25T18:56:11.662Z,5.40
2023-04-25T18:58:38.492Z,5.30
2023-04-25T19:01:05.386Z,5.30
2023-04-25T19:03:33.286Z,5.20
2023-04-25T19:06:00.534Z,5.20
2023-04-25T19:08:27.613Z,5.20
2023-04-25T19:10:54.652Z,5.10
2023-04-25T19:13:21.647Z,5.00
2023-04-25T19:15:48.657Z,4.90
2023-04-25T19:18:15.554Z,4.90
2023-04-25T19:20:42.790Z,4.90
2023-04-25T19:23:10.687Z,4.80
2023-04-25T19:25:40.470Z,4.80
2023-04-25T19:28:08.669Z,4.80
2023-04-25T19:30:35.666Z,5.00
2023-04-25T19:33:03.464Z,4.90
2023-04-25T19:35:32.797Z,4.90
2023-04-25T19:38:00.833Z,4.80
2023-04-25T19:40:27.680Z,4.90
2023-04-25T19:42:54.613Z,5.00
2023-04-25T19:45:21.806Z,5.00
2023-04-25T19:47:49.129Z,5.00
2023-04-25T19:50:16.285Z,5.00
2023-04-25T19:52:43.220Z,4.90
2023-04-25T19:55:10.893Z,5.00
2023-04-25T19:57:38.151Z,5.00
2023-04-25T20:00:11.959Z,5.00
2023-04-25T20:02:39.402Z,4.90
2023-04-25T20:05:08.367Z,4.90
2023-04-25T20:07:35.433Z,5.00
2023-04-25T20:10:02.626Z,5.00
2023-04-25T20:12:29.609Z,5.00
2023-04-25T20:14:56.656Z,5.10
2023-04-25T20:17:23.654Z,5.10
2023-04-25T20:19:50.609Z,5.10
2023-04-25T20:22:17.487Z,5.10
2023-04-25T20:24:44.344Z,5.10
2023-04-25T20:27:11.212Z,5.10
2023-04-25T20:29:38.142Z,5.10
2023-04-25T20:32:05.298Z,5.10
2023-04-25T20:34:32.400Z,5.20
2023-04-25T20:36:59.373Z,5.10
2023-04-25T20:39:26.950Z,5.10
2023-04-25T20:41:54.686Z,5.10
2023-04-25T20:44:23.508Z,5.10
2023-04-25T20:46:51.659Z,5.00
2023-04-25T20:49:18.532Z,4.90
2023-04-25T20:51:45.868Z,4.90
2023-04-25T20:54:13.474Z,4.90
2023-04-25T20:56:40.386Z,4.80
2023-04-25T20:59:07.291Z,4.90
2023-04-25T21:01:34.582Z,4.80
2023-04-25T21:04:01.988Z,4.70
2023-04-25T21:06:29.559Z,4.70
2023-04-25T21:08:56.396Z,4.60
2023-04-25T21:11:23.650Z,4.60
2023-04-25T21:13:51.704Z,4.60
2023-04-25T21:16:18.884Z,4.60
2023-04-25T21:18:45.909Z,4.60
2023-04-25T21:21:12.785Z,4.60
2023-04-25T21:23:39.680Z,4.60
2023-04-25T21:26:06.569Z,4.60
2023-04-25T21:28:33.391Z,4.50
2023-04-25T21:31:00.373Z,4.60
2023-04-25T21:33:27.225Z,4.50
2023-04-25T21:35:54.086Z,4.50
2023-04-25T21:38:20.976Z,4.50
2023-04-25T21:40:47.962Z,4.50
2023-04-25T21:43:14.837Z,4.50
2023-04-25T21:46:02.136Z,4.60
2023-04-25T21:48:28.604Z,4.60
2023-04-25T21:50:56.190Z,4.60
2023-04-25T21:53:23.161Z,4.60
2023-04-25T21:55:50.046Z,4.60
2023-04-25T21:58:16.901Z,4.60
2023-04-25T22:00:44.414Z,4.60
2023-04-25T22:03:11.711Z,4.50
2023-04-25T22:05:38.797Z,4.50
2023-04-25T22:08:05.606Z,4.60
2023-04-25T22:10:32.437Z,4.50
2023-04-25T22:12:59.402Z,4.50
2023-04-25T22:15:26.345Z,4.50
2023-04-25T22:17:56.608Z,4.40
2023-04-25T22:20:26.326Z,4.30
2023-04-25T22:22:54.659Z,4.30
2023-04-25T22:25:22.125Z,4.30
2023-04-25T22:27:49.443Z,4.30
2023-04-25T22:30:16.347Z,4.30
2023-04-25T22:32:43.489Z,4.40
2023-04-25T22:35:12.056Z,4.30
2023-04-25T22:37:39.210Z,4.30
2023-04-25T22:40:09.358Z,4.30
2023-04-25T22:42:40.863Z,4.30
2023-04-25T22:45:08.517Z,4.30
2023-04-25T22:47:39.210Z,4.30
2023-04-25T22:50:12.495Z,4.30
2023-04-25T22:52:39.516Z,4.20
2023-04-25T22:55:06.969Z,4.20
2023-04-25T22:57:36.918Z,4.20
2023-04-25T23:00:09.404Z,4.20
2023-04-25T23:02:36.424Z,4.20
2023-04-25T23:05:04.710Z,4.20
2023-04-25T23:07:31.970Z,4.30
2023-04-25T23:09:58.997Z,4.30
2023-04-25T23:12:25.820Z,4.30
2023-04-25T23:15:13.520Z,4.30
2023-04-25T23:17:43.463Z,4.30
2023-04-25T23:20:32.005Z,4.30
2023-04-25T23:22:59.533Z,4.40
2023-04-25T23:25:29.477Z,4.30
2023-04-25T23:27:56.342Z,4.40
2023-04-25T23:30:23.228Z,4.30
2023-04-25T23:32:50.120Z,4.30
2023-04-25T23:35:17.039Z,4.30
2023-04-25T23:37:43.974Z,4.30
2023-04-25T23:40:14.029Z,4.20
2023-04-25T23:42:42.095Z,4.30
2023-04-25T23:45:09.561Z,4.30
2023-04-25T23:47:36.813Z,4.30
2023-04-25T23:50:04.263Z,4.20
2023-04-25T23:52:31.205Z,4.20
2023-04-25T23:54:58.075Z,4.20
2023-04-25T23:57:24.946Z,4.20
2023-04-25T23:59:51.896Z,4.20
